createdAt,value
2018-03-03T00:04:44.224Z,57.10
2018-03-03T00:09:47.759Z,57.78
2018-03-03T00:14:53.916Z,60.50
2018-03-03T00:19:58.316Z,56.03
2018-03-03T00:25:01.722Z,58.17
2018-03-03T00:30:04.559Z,58.13
2018-03-03T00:35:08.127Z,57.83
2018-03-03T00:45:24.274Z,58.22
2018-03-03T00:50:27.140Z,62.58
2018-03-03T00:55:29.984Z,58.53
2018-03-03T01:00:33.884Z,62.65
2018-03-03T01:05:37.664Z,60.28
2018-03-03T01:10:43.680Z,61.53
2018-03-03T01:15:49.050Z,61.58
2018-03-03T01:20:53.702Z,59.77
2018-03-03T01:25:57.086Z,60.65
2018-03-03T01:31:00.282Z,62.37
2018-03-03T01:36:03.396Z,59.97
2018-03-03T01:41:06.303Z,60.47
2018-03-03T01:46:09.073Z,59.80
2018-03-03T01:51:23.853Z,61.43
2018-03-03T01:56:27.205Z,61.37
2018-03-03T02:01:30.417Z,63.58
2018-03-03T02:06:33.227Z,61.53
2018-03-03T02:11:36.055Z,63.80
2018-03-03T02:16:39.591Z,66.07
2018-03-03T02:21:42.757Z,65.40
2018-03-03T02:26:47.062Z,66.57
2018-03-03T02:31:50.537Z,64.00
2018-03-03T02:36:53.680Z,64.90
2018-03-03T02:41:56.798Z,63.70
2018-03-03T02:47:00.425Z,66.75
2018-03-03T02:52:03.951Z,64.13
2018-03-03T02:57:06.765Z,65.05
2018-03-03T03:02:10.359Z,62.67
2018-03-03T03:07:13.137Z,64.17
2018-03-03T03:12:16.361Z,65.80
2018-03-03T03:17:19.204Z,65.30
2018-03-03T03:22:23.155Z,69.40
2018-03-03T03:27:26.439Z,66.63
2018-03-03T03:32:29.501Z,67.62
2018-03-03T03:37:33.394Z,64.60
2018-03-03T03:42:36.194Z,65.70
2018-03-03T03:53:12.828Z,61.47
2018-03-03T03:58:16.348Z,63.72
2018-03-03T04:03:22.421Z,65.00
2018-03-03T04:14:02.066Z,62.57
2018-03-03T04:19:06.878Z,63.17
2018-03-03T04:24:09.733Z,63.25
2018-03-03T04:29:12.828Z,61.65
2018-03-03T04:34:15.620Z,61.58
2018-03-03T04:39:18.956Z,61.30
2018-03-03T04:44:21.811Z,63.57
2018-03-03T04:49:24.633Z,61.97
2018-03-03T04:54:30.075Z,63.50
2018-03-03T04:59:35.328Z,61.37
2018-03-03T05:04:43.683Z,61.28
2018-03-03T05:09:46.757Z,62.60
2018-03-03T05:14:58.243Z,60.97
2018-03-03T05:20:07.023Z,61.40
2018-03-03T05:25:15.720Z,61.55
2018-03-03T05:41:43.489Z,61.80
2018-03-03T05:58:25.746Z,61.20
2018-03-03T06:03:46.004Z,61.63
2018-03-03T06:08:50.770Z,62.33
2018-03-03T06:13:54.023Z,61.88
2018-03-03T06:18:59.508Z,61.40
2018-03-03T06:24:02.520Z,61.03
2018-03-03T06:29:05.320Z,63.38
2018-03-03T06:34:08.191Z,62.20
2018-03-03T06:39:11.344Z,61.97
2018-03-03T06:44:15.330Z,61.13
2018-03-03T09:25:06.649Z,62.60
2018-03-03T09:30:09.430Z,60.55
2018-03-03T09:35:16.034Z,58.47
2018-03-03T09:40:18.832Z,59.70
2018-03-03T09:45:25.195Z,58.40
2018-03-03T09:50:32.688Z,57.47
2018-03-03T09:55:35.574Z,57.88
2018-03-03T10:00:38.423Z,58.00
2018-03-03T10:05:42.663Z,56.47
2018-03-03T10:10:46.545Z,57.15
2018-03-03T10:15:49.890Z,56.72
2018-03-03T10:20:56.275Z,57.03
2018-03-03T10:25:59.160Z,57.42
2018-03-03T10:31:02.263Z,59.35
2018-03-03T10:36:08.514Z,56.60
2018-03-03T10:41:11.450Z,58.03
2018-03-03T10:46:14.231Z,59.20
2018-03-03T10:51:30.520Z,59.25
2018-03-03T10:56:34.987Z,55.93
2018-03-03T11:01:37.799Z,57.45
2018-03-03T11:06:40.736Z,58.67
2018-03-03T11:11:44.374Z,57.55
2018-03-03T11:16:49.016Z,57.80
2018-03-03T11:21:51.822Z,58.53
2018-03-03T11:26:55.130Z,60.47
2018-03-03T11:31:57.878Z,56.77
2018-03-03T11:37:00.724Z,63.50
2018-03-03T11:42:03.528Z,56.57
2018-03-03T11:47:07.001Z,57.15
2018-03-03T11:52:15.519Z,54.50
2018-03-03T11:57:18.753Z,57.03
2018-03-03T12:02:22.375Z,57.63
2018-03-03T12:07:26.067Z,56.25
2018-03-03T12:12:29.976Z,55.45
2018-03-03T12:17:34.027Z,57.60
2018-03-03T12:22:37.975Z,56.30
2018-03-03T12:27:42.392Z,53.50
2018-03-03T12:32:48.417Z,55.60
2018-03-03T12:37:51.883Z,54.55
2018-03-03T12:42:56.772Z,54.30
2018-03-03T12:47:59.675Z,54.83
2018-03-03T12:53:02.490Z,54.30
2018-03-03T12:58:06.508Z,56.43
2018-03-03T13:03:11.237Z,54.20
2018-03-03T13:08:14.117Z,55.75
2018-03-03T13:13:16.953Z,54.55
2018-03-03T13:18:20.824Z,52.65
2018-03-03T13:23:23.698Z,53.10
2018-03-03T13:28:26.571Z,54.75
2018-03-03T13:33:35.824Z,51.17
2018-03-03T13:38:42.703Z,53.08
2018-03-03T13:43:47.615Z,52.53
2018-03-03T13:48:50.600Z,52.80
2018-03-03T13:53:53.918Z,53.83
2018-03-03T13:58:57.051Z,51.55
2018-03-03T14:04:00.693Z,50.80
2018-03-03T14:09:03.607Z,49.75
2018-03-03T14:14:06.509Z,50.80
2018-03-03T14:19:09.337Z,50.60
2018-03-03T14:24:12.343Z,50.83
2018-03-03T14:29:15.169Z,52.28
2018-03-03T14:34:18.764Z,52.92
2018-03-03T14:39:21.866Z,48.50
2018-03-03T15:23:52.002Z,49.83
2018-03-03T15:28:55.294Z,47.83
2018-03-03T15:34:12.163Z,50.10
2018-03-03T15:39:15.435Z,50.03
2018-03-03T15:44:24.533Z,52.67
2018-03-03T15:49:28.585Z,50.53
2018-03-03T15:54:32.235Z,51.83
2018-03-03T15:59:35.081Z,51.28
2018-03-03T16:04:37.987Z,52.15
2018-03-03T16:09:40.839Z,52.67
2018-03-03T16:14:44.393Z,49.65
2018-03-03T16:19:47.228Z,51.70
2018-03-03T16:24:50.882Z,53.70
2018-03-03T16:29:53.710Z,51.88
2018-03-03T16:34:58.059Z,50.33
2018-03-03T16:40:00.987Z,51.27
2018-03-03T16:45:07.903Z,53.50
2018-03-03T16:50:13.462Z,53.45
2018-03-03T16:55:20.118Z,53.38
2018-03-03T17:00:25.820Z,55.20
2018-03-03T17:05:28.592Z,53.58
2018-03-03T17:10:31.444Z,54.40
2018-03-03T17:15:35.888Z,55.42
2018-03-03T17:20:38.747Z,57.60
2018-03-03T17:25:49.284Z,55.40
2018-03-03T17:36:31.566Z,56.13
2018-03-03T17:41:34.570Z,55.33
2018-03-03T17:46:40.149Z,58.87
2018-03-03T17:51:43.012Z,58.90
2018-03-03T17:56:46.361Z,64.43
2018-03-03T18:02:04.463Z,60.53
2018-03-03T18:07:18.128Z,63.27
2018-03-03T18:17:39.334Z,62.95
2018-03-03T18:22:44.229Z,62.78
2018-03-03T18:27:54.444Z,59.40
2018-03-03T18:38:48.470Z,63.07
2018-03-03T18:43:51.467Z,62.62
2018-03-03T18:48:54.338Z,62.23
2018-03-03T18:53:57.167Z,63.47
2018-03-03T18:58:59.957Z,68.15
2018-03-03T19:04:02.823Z,71.43
2018-03-03T19:09:05.714Z,62.40
2018-03-03T19:14:09.194Z,56.97
2018-03-03T19:19:12.039Z,59.92
2018-03-03T19:24:15.012Z,55.10
2018-03-03T19:29:26.540Z,60.30
2018-03-03T19:34:29.746Z,62.00
2018-03-03T19:39:39.452Z,63.55
2018-03-03T19:44:42.284Z,60.58
2018-03-03T19:49:46.006Z,61.58
2018-03-03T20:18:04.965Z,60.83
2018-03-03T20:23:12.078Z,61.28
2018-03-03T20:28:15.841Z,59.80
2018-03-03T20:33:20.236Z,61.90
2018-03-03T20:38:25.128Z,60.27
2018-03-03T20:43:30.917Z,57.30
2018-03-03T20:48:55.834Z,55.58
2018-03-03T20:54:03.438Z,60.85
2018-03-03T21:04:22.481Z,61.43
2018-03-03T21:09:25.430Z,60.08
2018-03-03T21:14:28.341Z,59.07
2018-03-03T21:19:34.162Z,59.70
2018-03-03T21:24:37.814Z,63.75
2018-03-03T21:29:56.996Z,62.62
2018-03-03T21:35:02.567Z,63.13
2018-03-03T21:40:07.092Z,62.70
2018-03-03T21:45:11.091Z,67.32
2018-03-03T21:50:14.713Z,64.20
2018-03-03T21:55:17.586Z,65.12
2018-03-03T22:00:25.075Z,70.93
2018-03-03T22:05:28.803Z,70.03
2018-03-03T22:10:31.728Z,69.80
2018-03-03T22:15:35.567Z,71.50
2018-03-03T22:20:39.476Z,72.20
2018-03-03T22:25:42.317Z,68.07
2018-03-03T22:30:47.411Z,72.30
2018-03-03T22:35:50.200Z,77.53
2018-03-03T22:40:55.053Z,69.00
2018-03-03T22:46:00.409Z,71.85
2018-03-03T22:51:04.249Z,69.90
2018-03-03T22:56:07.184Z,69.68
2018-03-03T23:01:10.736Z,72.30
2018-03-03T23:06:26.317Z,70.07
2018-03-03T23:11:29.450Z,70.90
2018-03-03T23:16:33.327Z,68.80
2018-03-03T23:21:38.491Z,68.47
2018-03-03T23:26:42.044Z,68.90
2018-03-03T23:31:44.850Z,67.50
2018-03-03T23:36:47.717Z,66.03
2018-03-03T23:41:51.534Z,66.93
2018-03-03T23:46:55.352Z,66.53
2018-03-03T23:51:59.138Z,65.03
2018-03-03T23:57:02.908Z,69.70
